sensor_id;sensor_type;location;lat;lon;timestamp;P1;durP1;ratioP1;P2;durP2;ratioP2
61570;SDS011;47463;49.884;10.010;2022-08-03T00:00:00;4.2;;;2.2;;
61570;SDS011;47463;49.884;10.010;2022-08-03T00:05:00;4.2;;;2.2;;
61570;SDS011;47463;49.884;10.010;2022-08-03T00:10:00;4.4;;;2.5;;
61570;SDS011;47463;49.884;10.010;2022-08-03T00:15:00;4.4;;;2.5;;
61570;SDS011;47463;49.884;10.010;2022-08-03T00:20:00;3.2;;;2.4;;
61570;SDS011;47463;49.884;10.010;2022-08-03T00:25:00;3.2;;;2.4;;
61570;SDS011;47463;49.884;10.010;2022-08-03T00:30:00;4.4;;;2.2;;
61570;SDS011;47463;49.884;10.010;2022-08-03T00:35:00;4.4;;;2.2;;
61570;SDS011;47463;49.884;10.010;2022-08-03T00:40:00;3.3;;;2;;
61570;SDS011;47463;49.884;10.010;2022-08-03T00:45:00;3.3;;;2;;
61570;SDS011;47463;49.884;10.010;2022-08-03T00:50:00;3.1;;;2.5;;
61570;SDS011;47463;49.884;10.010;2022-08-03T00:55:00;3.1;;;2.5;;
61570;SDS011;47463;49.884;10.010;2022-08-03T01:00:00;3.3;;;2.4;;
61570;SDS011;47463;49.884;10.010;2022-08-03T01:05:00;3.3;;;2.4;;
61570;SDS011;47463;49.884;10.010;2022-08-03T01:10:00;4.1;;;2.5;;
61570;SDS011;47463;49.884;10.010;2022-08-03T01:15:02;4.1;;;2.5;;
61570;SDS011;47463;49.884;10.010;2022-08-03T01:20:01;2.9;;;2.2;;
61570;SDS011;47463;49.884;10.010;2022-08-03T01:25:02;2.9;;;2.2;;
61570;SDS011;47463;49.884;10.010;2022-08-03T01:30:02;3.5;;;2.5;;
61570;SDS011;47463;49.884;10.010;2022-08-03T01:35:01;3.5;;;2.5;;
61570;SDS011;47463;49.884;10.010;2022-08-03T01:40:00;4.8;;;2.4;;
61570;SDS011;47463;49.884;10.010;2022-08-03T01:45:00;4.8;;;2.4;;
61570;SDS011;47463;49.884;10.010;2022-08-03T01:50:00;3.3;;;2.7;;
61570;SDS011;47463;49.884;10.010;2022-08-03T01:55:00;3.3;;;2.7;;
61570;SDS011;47463;49.884;10.010;2022-08-03T02:00:00;3.3;;;2.3;;
61570;SDS011;47463;49.884;10.010;2022-08-03T02:05:00;3.3;;;2.3;;
61570;SDS011;47463;49.884;10.010;2022-08-03T02:10:00;3.8;;;2.4;;
61570;SDS011;47463;49.884;10.010;2022-08-03T02:15:00;3.8;;;2.4;;
61570;SDS011;47463;49.884;10.010;2022-08-03T02:20:00;4;;;2.5;;
61570;SDS011;47463;49.884;10.010;2022-08-03T02:25:00;4;;;2.5;;
61570;SDS011;47463;49.884;10.010;2022-08-03T02:30:00;3.7;;;2.4;;
61570;SDS011;47463;49.884;10.010;2022-08-03T02:35:00;3.7;;;2.4;;
61570;SDS011;47463;49.884;10.010;2022-08-03T02:40:00;3.4;;;2.3;;
61570;SDS011;47463;49.884;10.010;2022-08-03T02:45:00;3.4;;;2.3;;
61570;SDS011;47463;49.884;10.010;2022-08-03T02:50:00;3.8;;;2.5;;
61570;SDS011;47463;49.884;10.010;2022-08-03T02:55:00;3.8;;;2.5;;
61570;SDS011;47463;49.884;10.010;2022-08-03T03:00:00;4.3;;;2.8;;
61570;SDS011;47463;49.884;10.010;2022-08-03T03:05:00;4.3;;;2.8;;
61570;SDS011;47463;49.884;10.010;2022-08-03T03:10:00;6;;;2.7;;
61570;SDS011;47463;49.884;10.010;2022-08-03T03:15:00;6;;;2.7;;
61570;SDS011;47463;49.884;10.010;2022-08-03T03:20:00;3;;;2.6;;
61570;SDS011;47463;49.884;10.010;2022-08-03T03:25:00;3;;;2.6;;
61570;SDS011;47463;49.884;10.010;2022-08-03T03:30:00;5;;;3.1;;
61570;SDS011;47463;49.884;10.010;2022-08-03T03:35:00;5;;;3.1;;
61570;SDS011;47463;49.884;10.010;2022-08-03T03:40:00;4.8;;;2.9;;
61570;SDS011;47463;49.884;10.010;2022-08-03T03:45:01;4.8;;;2.9;;
61570;SDS011;47463;49.884;10.010;2022-08-03T03:50:00;4.9;;;3.4;;
61570;SDS011;47463;49.884;10.010;2022-08-03T03:55:00;4.9;;;3.4;;
61570;SDS011;47463;49.884;10.010;2022-08-03T04:00:00;4;;;3.2;;
61570;SDS011;47463;49.884;10.010;2022-08-03T04:05:00;4;;;3.2;;
61570;SDS011;47463;49.884;10.010;2022-08-03T04:10:00;4.4;;;2.7;;
61570;SDS011;47463;49.884;10.010;2022-08-03T04:15:00;4.4;;;2.7;;
61570;SDS011;47463;49.884;10.010;2022-08-03T04:20:00;4;;;3;;
61570;SDS011;47463;49.884;10.010;2022-08-03T04:25:00;4;;;3;;
61570;SDS011;47463;49.884;10.010;2022-08-03T04:30:01;5.2;;;3.5;;
61570;SDS011;47463;49.884;10.010;2022-08-03T04:35:00;5.2;;;3.5;;
61570;SDS011;47463;49.884;10.010;2022-08-03T04:40:00;5.5;;;3.2;;
61570;SDS011;47463;49.884;10.010;2022-08-03T04:45:00;5.5;;;3.2;;
61570;SDS011;47463;49.884;10.010;2022-08-03T04:50:00;5.6;;;3.5;;
61570;SDS011;47463;49.884;10.010;2022-08-03T04:55:00;5.6;;;3.5;;
61570;SDS011;47463;49.884;10.010;2022-08-03T05:00:00;6.6;;;3.5;;
61570;SDS011;47463;49.884;10.010;2022-08-03T05:05:00;6.6;;;3.5;;
61570;SDS011;47463;49.884;10.010;2022-08-03T05:10:00;5.2;;;3.2;;
61570;SDS011;47463;49.884;10.010;2022-08-03T05:15:00;5.2;;;3.2;;
61570;SDS011;47463;49.884;10.010;2022-08-03T05:20:00;7.2;;;3.1;;
61570;SDS011;47463;49.884;10.010;2022-08-03T05:25:00;7.2;;;3.1;;
61570;SDS011;47463;49.884;10.010;2022-08-03T05:30:00;6.7;;;3.2;;
61570;SDS011;47463;49.884;10.010;2022-08-03T05:35:00;6.7;;;3.2;;
61570;SDS011;47463;49.884;10.010;2022-08-03T05:40:00;6.5;;;3.8;;
61570;SDS011;47463;49.884;10.010;2022-08-03T05:45:02;6.5;;;3.8;;
61570;SDS011;47463;49.884;10.010;2022-08-03T05:50:00;5.1;;;3.4;;
61570;SDS011;47463;49.884;10.010;2022-08-03T05:55:00;5.1;;;3.4;;
61570;SDS011;47463;49.884;10.010;2022-08-03T06:00:00;3.8;;;3.2;;
61570;SDS011;47463;49.884;10.010;2022-08-03T06:05:00;3.8;;;3.2;;
61570;SDS011;47463;49.884;10.010;2022-08-03T06:10:00;5.4;;;3.3;;
61570;SDS011;47463;49.884;10.010;2022-08-03T06:15:00;5.4;;;3.3;;
61570;SDS011;47463;49.884;10.010;2022-08-03T06:20:00;5.8;;;3.5;;
61570;SDS011;47463;49.884;10.010;2022-08-03T06:25:00;5.8;;;3.5;;
61570;SDS011;47463;49.884;10.010;2022-08-03T06:30:00;5.7;;;3.6;;
61570;SDS011;47463;49.884;10.010;2022-08-03T06:35:00;5.7;;;3.6;;
61570;SDS011;47463;49.884;10.010;2022-08-03T06:40:00;11.6;;;3.6;;
61570;SDS011;47463;49.884;10.010;2022-08-03T06:45:00;11.6;;;3.6;;
61570;SDS011;47463;49.884;10.010;2022-08-03T06:50:00;5;;;3.5;;
61570;SDS011;47463;49.884;10.010;2022-08-03T06:55:00;5;;;3.5;;
61570;SDS011;47463;49.884;10.010;2022-08-03T07:00:00;6.9;;;3.3;;
61570;SDS011;47463;49.884;10.010;2022-08-03T07:05:00;6.9;;;3.3;;
61570;SDS011;47463;49.884;10.010;2022-08-03T07:10:00;4.6;;;3.3;;
61570;SDS011;47463;49.884;10.010;2022-08-03T07:15:00;4.6;;;3.3;;
61570;SDS011;47463;49.884;10.010;2022-08-03T07:20:00;4.4;;;3.1;;
61570;SDS011;47463;49.884;10.010;2022-08-03T07:25:00;4.4;;;3.1;;
61570;SDS011;47463;49.884;10.010;2022-08-03T07:30:00;6.2;;;3.2;;
61570;SDS011;47463;49.884;10.010;2022-08-03T07:35:00;6.2;;;3.2;;
61570;SDS011;47463;49.884;10.010;2022-08-03T07:40:00;5.3;;;3.2;;
61570;SDS011;47463;49.884;10.010;2022-08-03T07:45:00;5.3;;;3.2;;
61570;SDS011;47463;49.884;10.010;2022-08-03T07:50:00;5.9;;;2.9;;
61570;SDS011;47463;49.884;10.010;2022-08-03T07:55:00;5.9;;;2.9;;
61570;SDS011;47463;49.884;10.010;2022-08-03T08:00:00;6.1;;;3;;
61570;SDS011;47463;49.884;10.010;2022-08-03T08:05:00;6.1;;;3;;
61570;SDS011;47463;49.884;10.010;2022-08-03T08:10:00;6;;;3;;
61570;SDS011;47463;49.884;10.010;2022-08-03T08:15:00;6;;;3;;
61570;SDS011;47463;49.884;10.010;2022-08-03T08:20:00;8.7;;;3.2;;
61570;SDS011;47463;49.884;10.010;2022-08-03T08:25:00;8.7;;;3.2;;
61570;SDS011;47463;49.884;10.010;2022-08-03T08:30:03;3.1;;;2.7;;
61570;SDS011;47463;49.884;10.010;2022-08-03T08:35:00;3.1;;;2.7;;
61570;SDS011;47463;49.884;10.010;2022-08-03T08:40:00;3;;;2.7;;
61570;SDS011;47463;49.884;10.010;2022-08-03T08:45:00;3;;;2.7;;
61570;SDS011;47463;49.884;10.010;2022-08-03T08:50:00;4.4;;;2.9;;
61570;SDS011;47463;49.884;10.010;2022-08-03T08:55:01;4.4;;;2.9;;
61570;SDS011;47463;49.884;10.010;2022-08-03T09:00:00;6.2;;;3.1;;
61570;SDS011;47463;49.884;10.010;2022-08-03T09:05:00;6.2;;;3.1;;
61570;SDS011;47463;49.884;10.010;2022-08-03T09:10:00;3.6;;;2.7;;
61570;SDS011;47463;49.884;10.010;2022-08-03T09:15:14;3.6;;;2.7;;
61570;SDS011;47463;49.884;10.010;2022-08-03T09:20:04;3.8;;;2.6;;
61570;SDS011;47463;49.884;10.010;2022-08-03T09:25:00;3.8;;;2.6;;
61570;SDS011;47463;49.884;10.010;2022-08-03T09:30:00;7.6;;;2.7;;
61570;SDS011;47463;49.884;10.010;2022-08-03T09:35:02;7.6;;;2.7;;
61570;SDS011;47463;49.884;10.010;2022-08-03T09:40:00;6.5;;;2.6;;
61570;SDS011;47463;49.884;10.010;2022-08-03T09:45:00;6.5;;;2.6;;
61570;SDS011;47463;49.884;10.010;2022-08-03T09:50:00;6.2;;;2.8;;
61570;SDS011;47463;49.884;10.010;2022-08-03T09:55:00;6.2;;;2.8;;
61570;SDS011;47463;49.884;10.010;2022-08-03T10:00:08;4.3;;;2.6;;
61570;SDS011;47463;49.884;10.010;2022-08-03T10:05:00;4.3;;;2.6;;
61570;SDS011;47463;49.884;10.010;2022-08-03T10:10:00;3.3;;;2.5;;
61570;SDS011;47463;49.884;10.010;2022-08-03T10:15:00;3.3;;;2.5;;
61570;SDS011;47463;49.884;10.010;2022-08-03T10:20:00;3.7;;;3;;
61570;SDS011;47463;49.884;10.010;2022-08-03T10:25:01;3.7;;;3;;
61570;SDS011;47463;49.884;10.010;2022-08-03T10:30:00;3.1;;;2.8;;
61570;SDS011;47463;49.884;10.010;2022-08-03T10:35:02;3.1;;;2.8;;
61570;SDS011;47463;49.884;10.010;2022-08-03T10:40:00;3.9;;;2.8;;
61570;SDS011;47463;49.884;10.010;2022-08-03T10:45:02;3.9;;;2.8;;
61570;SDS011;47463;49.884;10.010;2022-08-03T10:50:00;6.8;;;3.3;;
61570;SDS011;47463;49.884;10.010;2022-08-03T10:55:00;6.8;;;3.3;;
61570;SDS011;47463;49.884;10.010;2022-08-03T11:00:00;4.8;;;3.1;;
61570;SDS011;47463;49.884;10.010;2022-08-03T11:05:23;4.8;;;3.1;;
61570;SDS011;47463;49.884;10.010;2022-08-03T11:10:00;4.4;;;3.2;;
61570;SDS011;47463;49.884;10.010;2022-08-03T11:15:00;4.4;;;3.2;;
61570;SDS011;47463;49.884;10.010;2022-08-03T11:20:00;4.8;;;3;;
61570;SDS011;47463;49.884;10.010;2022-08-03T11:25:00;4.8;;;3;;
61570;SDS011;47463;49.884;10.010;2022-08-03T11:30:01;4.4;;;3.1;;
61570;SDS011;47463;49.884;10.010;2022-08-03T11:35:07;4.4;;;3.1;;
61570;SDS011;47463;49.884;10.010;2022-08-03T11:40:00;4.7;;;3.4;;
61570;SDS011;47463;49.884;10.010;2022-08-03T11:45:00;4.7;;;3.4;;
61570;SDS011;47463;49.884;10.010;2022-08-03T11:50:00;4.3;;;2.8;;
61570;SDS011;47463;49.884;10.010;2022-08-03T11:55:00;4.3;;;2.8;;
61570;SDS011;47463;49.884;10.010;2022-08-03T12:00:00;5.6;;;3.1;;
61570;SDS011;47463;49.884;10.010;2022-08-03T12:05:00;5.6;;;3.1;;
61570;SDS011;47463;49.884;10.010;2022-08-03T12:10:07;3.3;;;2.8;;
61570;SDS011;47463;49.884;10.010;2022-08-03T12:15:00;3.3;;;2.8;;
61570;SDS011;47463;49.884;10.010;2022-08-03T12:20:00;3.5;;;2.5;;
61570;SDS011;47463;49.884;10.010;2022-08-03T12:25:00;3.5;;;2.5;;
61570;SDS011;47463;49.884;10.010;2022-08-03T12:30:00;3.8;;;2.8;;
61570;SDS011;47463;49.884;10.010;2022-08-03T12:35:00;3.8;;;2.8;;
61570;SDS011;47463;49.884;10.010;2022-08-03T12:40:00;4.3;;;3;;
61570;SDS011;47463;49.884;10.010;2022-08-03T12:45:06;4.3;;;3;;
61570;SDS011;47463;49.884;10.010;2022-08-03T12:50:00;6.1;;;2.9;;
61570;SDS011;47463;49.884;10.010;2022-08-03T12:55:00;6.1;;;2.9;;
61570;SDS011;47463;49.884;10.010;2022-08-03T13:00:08;6.3;;;2.8;;
61570;SDS011;47463;49.884;10.010;2022-08-03T13:05:00;6.3;;;2.8;;
61570;SDS011;47463;49.884;10.010;2022-08-03T13:10:00;5.8;;;2.9;;
61570;SDS011;47463;49.884;10.010;2022-08-03T13:15:00;5.8;;;2.9;;
61570;SDS011;47463;49.884;10.010;2022-08-03T13:20:00;2.9;;;2.4;;
61570;SDS011;47463;49.884;10.010;2022-08-03T13:25:00;2.9;;;2.4;;
61570;SDS011;47463;49.884;10.010;2022-08-03T13:30:00;3.7;;;2.9;;
61570;SDS011;47463;49.884;10.010;2022-08-03T13:35:00;3.7;;;2.9;;
61570;SDS011;47463;49.884;10.010;2022-08-03T13:40:00;3.7;;;2.9;;
61570;SDS011;47463;49.884;10.010;2022-08-03T13:45:00;4.2;;;3.1;;
61570;SDS011;47463;49.884;10.010;2022-08-03T13:50:00;4.2;;;3.1;;
61570;SDS011;47463;49.884;10.010;2022-08-03T13:55:00;4.1;;;2.8;;
61570;SDS011;47463;49.884;10.010;2022-08-03T14:00:00;4.1;;;2.8;;
61570;SDS011;47463;49.884;10.010;2022-08-03T14:05:00;3.7;;;2.7;;
61570;SDS011;47463;49.884;10.010;2022-08-03T14:10:00;3.7;;;2.7;;
61570;SDS011;47463;49.884;10.010;2022-08-03T14:15:00;3.8;;;2.7;;
61570;SDS011;47463;49.884;10.010;2022-08-03T14:20:00;3.8;;;2.7;;
61570;SDS011;47463;49.884;10.010;2022-08-03T14:25:00;4.4;;;2.9;;
61570;SDS011;47463;49.884;10.010;2022-08-03T14:30:00;4.4;;;2.9;;
61570;SDS011;47463;49.884;10.010;2022-08-03T14:35:00;4.7;;;2.5;;
61570;SDS011;47463;49.884;10.010;2022-08-03T14:40:00;4.7;;;2.5;;
61570;SDS011;47463;49.884;10.010;2022-08-03T14:45:00;4.3;;;2.6;;
61570;SDS011;47463;49.884;10.010;2022-08-03T14:50:00;4.3;;;2.6;;
61570;SDS011;47463;49.884;10.010;2022-08-03T14:55:00;3.7;;;2.5;;
61570;SDS011;47463;49.884;10.010;2022-08-03T15:00:00;3.7;;;2.5;;
61570;SDS011;47463;49.884;10.010;2022-08-03T15:05:00;3.9;;;3;;
61570;SDS011;47463;49.884;10.010;2022-08-03T15:10:00;3.9;;;3;;
61570;SDS011;47463;49.884;10.010;2022-08-03T15:15:00;3.8;;;3;;
61570;SDS011;47463;49.884;10.010;2022-08-03T15:20:00;3.8;;;3;;
61570;SDS011;47463;49.884;10.010;2022-08-03T15:25:00;3.2;;;2.8;;
61570;SDS011;47463;49.884;10.010;2022-08-03T15:30:00;3.2;;;2.8;;
61570;SDS011;47463;49.884;10.010;2022-08-03T15:35:00;5;;;2.8;;
61570;SDS011;47463;49.884;10.010;2022-08-03T15:40:00;5;;;2.8;;
61570;SDS011;47463;49.884;10.010;2022-08-03T15:45:00;4.2;;;2.7;;
61570;SDS011;47463;49.884;10.010;2022-08-03T15:50:00;4.2;;;2.7;;
61570;SDS011;47463;49.884;10.010;2022-08-03T15:55:00;3.6;;;2.7;;
61570;SDS011;47463;49.884;10.010;2022-08-03T16:00:00;3.6;;;2.7;;
61570;SDS011;47463;49.884;10.010;2022-08-03T16:05:00;4.6;;;2.8;;
61570;SDS011;47463;49.884;10.010;2022-08-03T16:10:00;4.6;;;2.8;;
61570;SDS011;47463;49.884;10.010;2022-08-03T16:15:00;3.8;;;2.8;;
61570;SDS011;47463;49.884;10.010;2022-08-03T16:20:00;3.8;;;2.8;;
61570;SDS011;47463;49.884;10.010;2022-08-03T16:25:00;3.3;;;2.7;;
61570;SDS011;47463;49.884;10.010;2022-08-03T16:30:00;3.3;;;2.7;;
61570;SDS011;47463;49.884;10.010;2022-08-03T16:35:00;4.7;;;2.9;;
61570;SDS011;47463;49.884;10.010;2022-08-03T16:40:00;4.7;;;2.9;;
61570;SDS011;47463;49.884;10.010;2022-08-03T16:45:00;3.3;;;2.7;;
61570;SDS011;47463;49.884;10.010;2022-08-03T16:50:00;3.3;;;2.7;;
61570;SDS011;47463;49.884;10.010;2022-08-03T16:55:00;5;;;2.8;;
61570;SDS011;47463;49.884;10.010;2022-08-03T17:00:00;5;;;2.8;;
61570;SDS011;47463;49.884;10.010;2022-08-03T17:05:00;3.3;;;2.6;;
61570;SDS011;47463;49.884;10.010;2022-08-03T17:10:00;3.3;;;2.6;;
61570;SDS011;47463;49.884;10.010;2022-08-03T17:15:00;4.3;;;2.6;;
61570;SDS011;47463;49.884;10.010;2022-08-03T17:20:00;4.3;;;2.6;;
61570;SDS011;47463;49.884;10.010;2022-08-03T17:25:02;3.6;;;2.6;;
61570;SDS011;47463;49.884;10.010;2022-08-03T17:30:01;3.6;;;2.6;;
61570;SDS011;47463;49.884;10.010;2022-08-03T17:35:00;3.2;;;2.6;;
61570;SDS011;47463;49.884;10.010;2022-08-03T17:40:00;3.2;;;2.6;;
61570;SDS011;47463;49.884;10.010;2022-08-03T17:45:00;3.7;;;2.6;;
61570;SDS011;47463;49.884;10.010;2022-08-03T17:50:00;3.7;;;2.6;;
61570;SDS011;47463;49.884;10.010;2022-08-03T17:55:01;3.3;;;3;;
61570;SDS011;47463;49.884;10.010;2022-08-03T18:00:02;3.3;;;3;;
61570;SDS011;47463;49.884;10.010;2022-08-03T18:05:01;4.6;;;2.9;;
61570;SDS011;47463;49.884;10.010;2022-08-03T18:10:00;4.6;;;2.9;;
61570;SDS011;47463;49.884;10.010;2022-08-03T18:15:00;5.1;;;2.9;;
61570;SDS011;47463;49.884;10.010;2022-08-03T18:20:00;5.1;;;2.9;;
61570;SDS011;47463;49.884;10.010;2022-08-03T18:25:00;4.7;;;3.4;;
61570;SDS011;47463;49.884;10.010;2022-08-03T18:30:00;4.7;;;3.4;;
61570;SDS011;47463;49.884;10.010;2022-08-03T18:35:00;9.6;;;3;;
61570;SDS011;47463;49.884;10.010;2022-08-03T18:40:00;9.6;;;3;;
61570;SDS011;47463;49.884;10.010;2022-08-03T18:45:00;3.4;;;2.8;;
61570;SDS011;47463;49.884;10.010;2022-08-03T18:50:02;3.4;;;2.8;;
61570;SDS011;47463;49.884;10.010;2022-08-03T18:55:02;4.6;;;2.9;;
61570;SDS011;47463;49.884;10.010;2022-08-03T19:00:01;4.6;;;2.9;;
61570;SDS011;47463;49.884;10.010;2022-08-03T19:05:02;4;;;2.9;;
61570;SDS011;47463;49.884;10.010;2022-08-03T19:10:02;4;;;2.9;;
61570;SDS011;47463;49.884;10.010;2022-08-03T19:15:00;4.7;;;2.7;;
61570;SDS011;47463;49.884;10.010;2022-08-03T19:20:00;4.7;;;2.7;;
61570;SDS011;47463;49.884;10.010;2022-08-03T19:25:00;4.3;;;2.9;;
61570;SDS011;47463;49.884;10.010;2022-08-03T19:30:00;4.3;;;2.9;;
61570;SDS011;47463;49.884;10.010;2022-08-03T19:35:00;6;;;2.9;;
61570;SDS011;47463;49.884;10.010;2022-08-03T19:40:00;6;;;2.9;;
61570;SDS011;47463;49.884;10.010;2022-08-03T19:45:03;6;;;3.6;;
61570;SDS011;47463;49.884;10.010;2022-08-03T19:50:00;6;;;3.6;;
61570;SDS011;47463;49.884;10.010;2022-08-03T19:55:00;5.6;;;2.9;;
61570;SDS011;47463;49.884;10.010;2022-08-03T20:00:00;5.6;;;2.9;;
61570;SDS011;47463;49.884;10.010;2022-08-03T20:05:00;5;;;2.8;;
61570;SDS011;47463;49.884;10.010;2022-08-03T20:10:00;5;;;2.8;;
61570;SDS011;47463;49.884;10.010;2022-08-03T20:15:00;6.7;;;2.6;;
61570;SDS011;47463;49.884;10.010;2022-08-03T20:20:00;6.7;;;2.6;;
61570;SDS011;47463;49.884;10.010;2022-08-03T20:25:00;5.4;;;2.7;;
61570;SDS011;47463;49.884;10.010;2022-08-03T20:30:00;5.4;;;2.7;;
61570;SDS011;47463;49.884;10.010;2022-08-03T20:35:00;6.8;;;2.9;;
61570;SDS011;47463;49.884;10.010;2022-08-03T20:40:00;6.8;;;2.9;;
61570;SDS011;47463;49.884;10.010;2022-08-03T20:45:00;4.5;;;2.9;;
61570;SDS011;47463;49.884;10.010;2022-08-03T20:50:00;4.5;;;2.9;;
61570;SDS011;47463;49.884;10.010;2022-08-03T20:55:00;5.5;;;3.2;;
61570;SDS011;47463;49.884;10.010;2022-08-03T21:00:00;5.5;;;3.2;;
61570;SDS011;47463;49.884;10.010;2022-08-03T21:05:00;6.4;;;2.8;;
61570;SDS011;47463;49.884;10.010;2022-08-03T21:10:02;6.4;;;2.8;;
61570;SDS011;47463;49.884;10.010;2022-08-03T21:15:01;5.1;;;3.3;;
61570;SDS011;47463;49.884;10.010;2022-08-03T21:20:00;5.1;;;3.3;;
61570;SDS011;47463;49.884;10.010;2022-08-03T21:25:00;4.5;;;2.9;;
61570;SDS011;47463;49.884;10.010;2022-08-03T21:30:00;4.5;;;2.9;;
61570;SDS011;47463;49.884;10.010;2022-08-03T21:35:00;6.1;;;3;;
61570;SDS011;47463;49.884;10.010;2022-08-03T21:40:00;6.1;;;3;;
61570;SDS011;47463;49.884;10.010;2022-08-03T21:45:01;4.2;;;2.8;;
61570;SDS011;47463;49.884;10.010;2022-08-03T21:50:00;4.2;;;2.8;;
61570;SDS011;47463;49.884;10.010;2022-08-03T21:55:02;4.8;;;2.9;;
61570;SDS011;47463;49.884;10.010;2022-08-03T22:00:01;4.8;;;2.9;;
61570;SDS011;47463;49.884;10.010;2022-08-03T22:05:00;5.7;;;3;;
61570;SDS011;47463;49.884;10.010;2022-08-03T22:10:00;5.7;;;3;;
61570;SDS011;47463;49.884;10.010;2022-08-03T22:15:00;4.6;;;3.5;;
61570;SDS011;47463;49.884;10.010;2022-08-03T22:20:00;4.6;;;3.5;;
61570;SDS011;47463;49.884;10.010;2022-08-03T22:25:00;5.6;;;3;;
61570;SDS011;47463;49.884;10.010;2022-08-03T22:30:00;5.6;;;3;;
61570;SDS011;47463;49.884;10.010;2022-08-03T22:35:00;6.8;;;3;;
61570;SDS011;47463;49.884;10.010;2022-08-03T22:40:02;6.8;;;3;;
61570;SDS011;47463;49.884;10.010;2022-08-03T22:45:00;6.1;;;3.4;;
61570;SDS011;47463;49.884;10.010;2022-08-03T22:50:01;6.1;;;3.4;;
61570;SDS011;47463;49.884;10.010;2022-08-03T22:55:00;4.1;;;3.4;;
61570;SDS011;47463;49.884;10.010;2022-08-03T23:00:00;4.1;;;3.4;;
61570;SDS011;47463;49.884;10.010;2022-08-03T23:05:02;3.9;;;2.9;;
61570;SDS011;47463;49.884;10.010;2022-08-03T23:10:00;3.9;;;2.9;;
61570;SDS011;47463;49.884;10.010;2022-08-03T23:15:00;4.5;;;3.1;;
61570;SDS011;47463;49.884;10.010;2022-08-03T23:20:01;4.5;;;3.1;;
61570;SDS011;47463;49.884;10.010;2022-08-03T23:25:00;6;;;3.4;;
61570;SDS011;47463;49.884;10.010;2022-08-03T23:30:00;6;;;3.4;;
61570;SDS011;47463;49.884;10.010;2022-08-03T23:35:00;4.3;;;3.6;;
61570;SDS011;47463;49.884;10.010;2022-08-03T23:40:00;4.3;;;3.6;;
61570;SDS011;47463;49.884;10.010;2022-08-03T23:45:00;5.1;;;3.3;;
61570;SDS011;47463;49.884;10.010;2022-08-03T23:50:00;5.1;;;3.3;;
61570;SDS011;47463;49.884;10.010;2022-08-03T23:55:06;5.6;;;3.7;;
